sensor_id;sensor_type;location;lat;lon;timestamp;P1;durP1;ratioP1;P2;durP2;ratioP2
6306;SDS011;3186;54.062;9.962;2023-05-28T00:02:15;18.03;;;9.13;;
6306;SDS011;3186;54.062;9.962;2023-05-28T00:04:41;16.90;;;8.57;;
6306;SDS011;3186;54.062;9.962;2023-05-28T00:07:07;13.77;;;8.83;;
6306;SDS011;3186;54.062;9.962;2023-05-28T00:09:36;13.63;;;8.13;;
6306;SDS011;3186;54.062;9.962;2023-05-28T00:12:02;14.80;;;8.57;;
6306;SDS011;3186;54.062;9.962;2023-05-28T00:14:28;14.40;;;8.80;;
6306;SDS011;3186;54.062;9.962;2023-05-28T00:16:54;20.10;;;9.20;;
6306;SDS011;3186;54.062;9.962;2023-05-28T00:19:21;11.03;;;7.87;;
6306;SDS011;3186;54.062;9.962;2023-05-28T00:21:47;14.60;;;8.10;;
6306;SDS011;3186;54.062;9.962;2023-05-28T00:24:13;13.93;;;8.53;;
6306;SDS011;3186;54.062;9.962;2023-05-28T00:26:39;12.57;;;7.67;;
6306;SDS011;3186;54.062;9.962;2023-05-28T00:29:05;15.30;;;8.13;;
6306;SDS011;3186;54.062;9.962;2023-05-28T00:31:31;14.20;;;8.03;;
6306;SDS011;3186;54.062;9.962;2023-05-28T00:33:59;13.30;;;7.80;;
6306;SDS011;3186;54.062;9.962;2023-05-28T00:36:26;12.50;;;8.10;;
6306;SDS011;3186;54.062;9.962;2023-05-28T00:38:52;12.73;;;7.50;;
6306;SDS011;3186;54.062;9.962;2023-05-28T00:41:22;15.20;;;7.73;;
6306;SDS011;3186;54.062;9.962;2023-05-28T00:43:48;16.23;;;8.57;;
6306;SDS011;3186;54.062;9.962;2023-05-28T00:46:18;12.03;;;7.23;;
6306;SDS011;3186;54.062;9.962;2023-05-28T00:48:47;16.07;;;7.30;;
6306;SDS011;3186;54.062;9.962;2023-05-28T00:51:13;13.43;;;7.20;;
6306;SDS011;3186;54.062;9.962;2023-05-28T00:53:40;11.50;;;7.70;;
6306;SDS011;3186;54.062;9.962;2023-05-28T00:56:08;9.77;;;6.57;;
6306;SDS011;3186;54.062;9.962;2023-05-28T00:58:37;11.77;;;7.53;;
6306;SDS011;3186;54.062;9.962;2023-05-28T01:01:08;7.77;;;6.17;;
6306;SDS011;3186;54.062;9.962;2023-05-28T01:03:37;14.90;;;6.87;;
6306;SDS011;3186;54.062;9.962;2023-05-28T01:06:07;15.03;;;7.20;;
6306;SDS011;3186;54.062;9.962;2023-05-28T01:08:38;12.13;;;6.60;;
6306;SDS011;3186;54.062;9.962;2023-05-28T01:11:07;11.53;;;6.20;;
6306;SDS011;3186;54.062;9.962;2023-05-28T01:13:38;13.03;;;6.57;;
6306;SDS011;3186;54.062;9.962;2023-05-28T01:16:06;11.27;;;6.07;;
6306;SDS011;3186;54.062;9.962;2023-05-28T01:18:32;8.40;;;5.67;;
6306;SDS011;3186;54.062;9.962;2023-05-28T01:21:01;12.17;;;5.97;;
6306;SDS011;3186;54.062;9.962;2023-05-28T01:23:28;12.47;;;6.03;;
6306;SDS011;3186;54.062;9.962;2023-05-28T01:25:57;14.87;;;5.97;;
6306;SDS011;3186;54.062;9.962;2023-05-28T01:28:24;10.87;;;6.50;;
6306;SDS011;3186;54.062;9.962;2023-05-28T01:30:50;11.23;;;5.97;;
6306;SDS011;3186;54.062;9.962;2023-05-28T01:33:18;8.97;;;5.60;;
6306;SDS011;3186;54.062;9.962;2023-05-28T01:35:46;19.27;;;5.93;;
6306;SDS011;3186;54.062;9.962;2023-05-28T01:38:12;11.73;;;6.07;;
6306;SDS011;3186;54.062;9.962;2023-05-28T01:40:44;9.73;;;5.07;;
6306;SDS011;3186;54.062;9.962;2023-05-28T01:43:11;8.97;;;4.90;;
6306;SDS011;3186;54.062;9.962;2023-05-28T01:45:38;9.03;;;5.13;;
6306;SDS011;3186;54.062;9.962;2023-05-28T01:48:05;11.70;;;5.30;;
6306;SDS011;3186;54.062;9.962;2023-05-28T01:50:33;11.63;;;5.30;;
6306;SDS011;3186;54.062;9.962;2023-05-28T01:52:59;8.13;;;5.30;;
6306;SDS011;3186;54.062;9.962;2023-05-28T01:55:25;8.13;;;4.43;;
6306;SDS011;3186;54.062;9.962;2023-05-28T01:57:51;9.93;;;5.20;;
6306;SDS011;3186;54.062;9.962;2023-05-28T02:00:17;7.67;;;4.67;;
6306;SDS011;3186;54.062;9.962;2023-05-28T02:02:44;10.33;;;5.53;;
6306;SDS011;3186;54.062;9.962;2023-05-28T02:05:13;7.30;;;4.97;;
6306;SDS011;3186;54.062;9.962;2023-05-28T02:07:40;7.47;;;4.97;;
6306;SDS011;3186;54.062;9.962;2023-05-28T02:10:06;12.00;;;5.50;;
6306;SDS011;3186;54.062;9.962;2023-05-28T02:12:32;11.87;;;5.60;;
6306;SDS011;3186;54.062;9.962;2023-05-28T02:14:58;7.73;;;4.93;;
6306;SDS011;3186;54.062;9.962;2023-05-28T02:17:24;8.10;;;4.67;;
6306;SDS011;3186;54.062;9.962;2023-05-28T02:19:51;9.77;;;4.87;;
6306;SDS011;3186;54.062;9.962;2023-05-28T02:22:17;7.20;;;4.70;;
6306;SDS011;3186;54.062;9.962;2023-05-28T02:24:42;11.30;;;5.43;;
6306;SDS011;3186;54.062;9.962;2023-05-28T02:27:10;7.33;;;4.63;;
6306;SDS011;3186;54.062;9.962;2023-05-28T02:29:37;11.97;;;4.93;;
6306;SDS011;3186;54.062;9.962;2023-05-28T02:32:05;8.03;;;4.63;;
6306;SDS011;3186;54.062;9.962;2023-05-28T02:34:31;9.00;;;4.93;;
6306;SDS011;3186;54.062;9.962;2023-05-28T02:36:57;11.03;;;4.63;;
6306;SDS011;3186;54.062;9.962;2023-05-28T02:39:23;7.70;;;4.97;;
6306;SDS011;3186;54.062;9.962;2023-05-28T02:41:49;5.93;;;4.20;;
6306;SDS011;3186;54.062;9.962;2023-05-28T02:44:15;8.07;;;4.13;;
6306;SDS011;3186;54.062;9.962;2023-05-28T02:46:41;9.43;;;4.37;;
6306;SDS011;3186;54.062;9.962;2023-05-28T02:49:07;7.70;;;5.00;;
6306;SDS011;3186;54.062;9.962;2023-05-28T02:51:33;6.63;;;4.47;;
6306;SDS011;3186;54.062;9.962;2023-05-28T02:54:24;8.90;;;5.00;;
6306;SDS011;3186;54.062;9.962;2023-05-28T02:56:51;7.93;;;4.80;;
6306;SDS011;3186;54.062;9.962;2023-05-28T02:59:17;10.73;;;4.97;;
6306;SDS011;3186;54.062;9.962;2023-05-28T03:01:43;11.07;;;5.23;;
6306;SDS011;3186;54.062;9.962;2023-05-28T03:04:10;6.83;;;4.63;;
6306;SDS011;3186;54.062;9.962;2023-05-28T03:06:36;10.17;;;4.73;;
6306;SDS011;3186;54.062;9.962;2023-05-28T03:09:02;11.03;;;4.97;;
6306;SDS011;3186;54.062;9.962;2023-05-28T03:11:28;7.67;;;4.57;;
6306;SDS011;3186;54.062;9.962;2023-05-28T03:13:54;7.80;;;4.20;;
6306;SDS011;3186;54.062;9.962;2023-05-28T03:16:20;10.13;;;4.83;;
6306;SDS011;3186;54.062;9.962;2023-05-28T03:18:46;7.10;;;4.20;;
6306;SDS011;3186;54.062;9.962;2023-05-28T03:21:13;8.60;;;4.23;;
6306;SDS011;3186;54.062;9.962;2023-05-28T03:23:40;7.43;;;3.87;;
6306;SDS011;3186;54.062;9.962;2023-05-28T03:26:11;7.17;;;4.87;;
6306;SDS011;3186;54.062;9.962;2023-05-28T03:28:37;9.17;;;4.73;;
6306;SDS011;3186;54.062;9.962;2023-05-28T03:31:24;7.43;;;4.30;;
6306;SDS011;3186;54.062;9.962;2023-05-28T03:33:53;7.30;;;4.40;;
6306;SDS011;3186;54.062;9.962;2023-05-28T03:36:19;7.53;;;4.33;;
6306;SDS011;3186;54.062;9.962;2023-05-28T03:38:45;6.07;;;4.63;;
6306;SDS011;3186;54.062;9.962;2023-05-28T03:41:11;8.60;;;3.83;;
6306;SDS011;3186;54.062;9.962;2023-05-28T03:43:37;6.70;;;4.07;;
6306;SDS011;3186;54.062;9.962;2023-05-28T03:46:03;7.53;;;4.37;;
6306;SDS011;3186;54.062;9.962;2023-05-28T03:48:29;6.83;;;3.87;;
6306;SDS011;3186;54.062;9.962;2023-05-28T03:50:55;8.63;;;4.47;;
6306;SDS011;3186;54.062;9.962;2023-05-28T03:53:22;7.77;;;4.43;;
6306;SDS011;3186;54.062;9.962;2023-05-28T03:55:48;7.00;;;4.83;;
6306;SDS011;3186;54.062;9.962;2023-05-28T03:58:17;7.27;;;4.37;;
6306;SDS011;3186;54.062;9.962;2023-05-28T04:00:43;9.53;;;4.50;;
6306;SDS011;3186;54.062;9.962;2023-05-28T04:03:09;8.07;;;4.37;;
6306;SDS011;3186;54.062;9.962;2023-05-28T04:05:38;10.37;;;4.63;;
6306;SDS011;3186;54.062;9.962;2023-05-28T04:08:04;12.50;;;5.00;;
6306;SDS011;3186;54.062;9.962;2023-05-28T04:10:29;7.13;;;4.60;;
6306;SDS011;3186;54.062;9.962;2023-05-28T04:12:56;6.60;;;4.00;;
6306;SDS011;3186;54.062;9.962;2023-05-28T04:15:22;7.90;;;4.80;;
6306;SDS011;3186;54.062;9.962;2023-05-28T04:17:47;6.27;;;4.30;;
6306;SDS011;3186;54.062;9.962;2023-05-28T04:20:13;7.27;;;5.00;;
6306;SDS011;3186;54.062;9.962;2023-05-28T04:22:39;7.33;;;4.37;;
6306;SDS011;3186;54.062;9.962;2023-05-28T04:25:06;7.57;;;4.10;;
6306;SDS011;3186;54.062;9.962;2023-05-28T04:27:32;7.53;;;4.50;;
6306;SDS011;3186;54.062;9.962;2023-05-28T04:29:58;5.47;;;4.30;;
6306;SDS011;3186;54.062;9.962;2023-05-28T04:32:24;12.10;;;5.00;;
6306;SDS011;3186;54.062;9.962;2023-05-28T04:34:50;7.47;;;4.53;;
6306;SDS011;3186;54.062;9.962;2023-05-28T04:37:20;7.67;;;4.30;;
6306;SDS011;3186;54.062;9.962;2023-05-28T04:39:47;9.90;;;4.53;;
6306;SDS011;3186;54.062;9.962;2023-05-28T04:42:13;6.30;;;4.57;;
6306;SDS011;3186;54.062;9.962;2023-05-28T04:44:45;13.50;;;5.17;;
6306;SDS011;3186;54.062;9.962;2023-05-28T04:47:11;10.90;;;4.83;;
6306;SDS011;3186;54.062;9.962;2023-05-28T04:49:38;9.07;;;4.03;;
6306;SDS011;3186;54.062;9.962;2023-05-28T04:52:06;9.23;;;4.77;;
6306;SDS011;3186;54.062;9.962;2023-05-28T04:54:32;8.00;;;3.77;;
6306;SDS011;3186;54.062;9.962;2023-05-28T04:56:58;9.20;;;4.67;;
6306;SDS011;3186;54.062;9.962;2023-05-28T04:59:23;7.90;;;4.43;;
6306;SDS011;3186;54.062;9.962;2023-05-28T05:01:50;7.17;;;4.70;;
6306;SDS011;3186;54.062;9.962;2023-05-28T05:04:16;5.83;;;4.20;;
6306;SDS011;3186;54.062;9.962;2023-05-28T05:06:42;7.60;;;4.40;;
6306;SDS011;3186;54.062;9.962;2023-05-28T05:09:08;7.17;;;4.50;;
6306;SDS011;3186;54.062;9.962;2023-05-28T05:11:34;5.77;;;3.93;;
6306;SDS011;3186;54.062;9.962;2023-05-28T05:14:02;5.73;;;3.90;;
6306;SDS011;3186;54.062;9.962;2023-05-28T05:16:28;6.00;;;4.10;;
6306;SDS011;3186;54.062;9.962;2023-05-28T05:18:54;13.10;;;4.60;;
6306;SDS011;3186;54.062;9.962;2023-05-28T05:21:21;7.53;;;4.37;;
6306;SDS011;3186;54.062;9.962;2023-05-28T05:23:48;8.37;;;4.13;;
6306;SDS011;3186;54.062;9.962;2023-05-28T05:26:14;9.20;;;4.80;;
6306;SDS011;3186;54.062;9.962;2023-05-28T05:28:43;8.53;;;4.50;;
6306;SDS011;3186;54.062;9.962;2023-05-28T05:31:10;10.13;;;4.23;;
6306;SDS011;3186;54.062;9.962;2023-05-28T05:33:40;10.57;;;4.80;;
6306;SDS011;3186;54.062;9.962;2023-05-28T05:36:24;6.87;;;3.87;;
6306;SDS011;3186;54.062;9.962;2023-05-28T05:39:12;6.37;;;4.27;;
6306;SDS011;3186;54.062;9.962;2023-05-28T05:41:58;9.73;;;4.40;;
6306;SDS011;3186;54.062;9.962;2023-05-28T05:44:31;8.60;;;4.67;;
6306;SDS011;3186;54.062;9.962;2023-05-28T05:46:58;6.70;;;4.27;;
6306;SDS011;3186;54.062;9.962;2023-05-28T05:49:24;6.37;;;4.20;;
6306;SDS011;3186;54.062;9.962;2023-05-28T05:51:51;6.47;;;3.97;;
6306;SDS011;3186;54.062;9.962;2023-05-28T05:54:18;6.70;;;4.63;;
6306;SDS011;3186;54.062;9.962;2023-05-28T05:56:44;5.70;;;4.30;;
6306;SDS011;3186;54.062;9.962;2023-05-28T05:59:11;7.63;;;4.77;;
6306;SDS011;3186;54.062;9.962;2023-05-28T06:01:37;9.43;;;4.40;;
6306;SDS011;3186;54.062;9.962;2023-05-28T06:04:03;6.37;;;4.53;;
6306;SDS011;3186;54.062;9.962;2023-05-28T06:06:47;8.80;;;4.77;;
6306;SDS011;3186;54.062;9.962;2023-05-28T06:09:46;8.50;;;4.27;;
6306;SDS011;3186;54.062;9.962;2023-05-28T06:12:19;6.83;;;4.83;;
6306;SDS011;3186;54.062;9.962;2023-05-28T06:14:46;6.40;;;4.00;;
6306;SDS011;3186;54.062;9.962;2023-05-28T06:17:13;7.77;;;4.50;;
6306;SDS011;3186;54.062;9.962;2023-05-28T06:19:39;6.07;;;4.63;;
6306;SDS011;3186;54.062;9.962;2023-05-28T06:22:06;7.13;;;4.70;;
6306;SDS011;3186;54.062;9.962;2023-05-28T06:24:33;7.63;;;4.60;;
6306;SDS011;3186;54.062;9.962;2023-05-28T06:26:59;9.47;;;4.97;;
6306;SDS011;3186;54.062;9.962;2023-05-28T06:29:25;9.23;;;4.90;;
6306;SDS011;3186;54.062;9.962;2023-05-28T06:31:52;13.83;;;5.37;;
6306;SDS011;3186;54.062;9.962;2023-05-28T06:34:18;10.27;;;4.87;;
6306;SDS011;3186;54.062;9.962;2023-05-28T06:36:44;8.67;;;4.90;;
6306;SDS011;3186;54.062;9.962;2023-05-28T06:39:12;8.20;;;4.73;;
6306;SDS011;3186;54.062;9.962;2023-05-28T06:41:40;9.43;;;4.97;;
6306;SDS011;3186;54.062;9.962;2023-05-28T06:44:13;6.37;;;4.87;;
6306;SDS011;3186;54.062;9.962;2023-05-28T06:46:44;9.23;;;5.60;;
6306;SDS011;3186;54.062;9.962;2023-05-28T06:49:12;7.73;;;5.47;;
6306;SDS011;3186;54.062;9.962;2023-05-28T06:51:39;8.07;;;4.50;;
6306;SDS011;3186;54.062;9.962;2023-05-28T06:54:05;7.43;;;5.00;;
6306;SDS011;3186;54.062;9.962;2023-05-28T06:56:32;7.83;;;5.57;;
6306;SDS011;3186;54.062;9.962;2023-05-28T06:59:18;7.10;;;5.30;;
6306;SDS011;3186;54.062;9.962;2023-05-28T07:02:00;8.03;;;5.30;;
6306;SDS011;3186;54.062;9.962;2023-05-28T07:04:46;9.20;;;4.43;;
6306;SDS011;3186;54.062;9.962;2023-05-28T07:07:16;8.90;;;5.03;;
6306;SDS011;3186;54.062;9.962;2023-05-28T07:09:42;9.20;;;4.67;;
6306;SDS011;3186;54.062;9.962;2023-05-28T07:12:08;9.50;;;5.37;;
6306;SDS011;3186;54.062;9.962;2023-05-28T07:14:38;7.73;;;4.37;;
6306;SDS011;3186;54.062;9.962;2023-05-28T07:17:04;12.67;;;5.57;;
6306;SDS011;3186;54.062;9.962;2023-05-28T07:19:30;9.67;;;5.60;;
6306;SDS011;3186;54.062;9.962;2023-05-28T07:21:57;11.40;;;5.53;;
6306;SDS011;3186;54.062;9.962;2023-05-28T07:24:23;9.00;;;4.63;;
6306;SDS011;3186;54.062;9.962;2023-05-28T07:26:49;12.47;;;5.53;;
6306;SDS011;3186;54.062;9.962;2023-05-28T07:29:17;11.87;;;5.00;;
6306;SDS011;3186;54.062;9.962;2023-05-28T07:31:44;9.83;;;4.93;;
6306;SDS011;3186;54.062;9.962;2023-05-28T07:34:11;8.07;;;4.83;;
6306;SDS011;3186;54.062;9.962;2023-05-28T07:36:39;12.67;;;5.37;;
6306;SDS011;3186;54.062;9.962;2023-05-28T07:39:06;10.77;;;5.47;;
6306;SDS011;3186;54.062;9.962;2023-05-28T07:41:34;8.33;;;4.43;;
6306;SDS011;3186;54.062;9.962;2023-05-28T07:44:18;11.87;;;5.23;;
6306;SDS011;3186;54.062;9.962;2023-05-28T07:46:45;6.17;;;4.70;;
6306;SDS011;3186;54.062;9.962;2023-05-28T07:49:40;10.13;;;5.03;;
6306;SDS011;3186;54.062;9.962;2023-05-28T07:52:06;8.33;;;5.07;;
6306;SDS011;3186;54.062;9.962;2023-05-28T07:54:33;8.73;;;5.07;;
6306;SDS011;3186;54.062;9.962;2023-05-28T07:56:59;10.30;;;5.40;;
6306;SDS011;3186;54.062;9.962;2023-05-28T07:59:31;8.30;;;4.80;;
6306;SDS011;3186;54.062;9.962;2023-05-28T08:02:02;7.93;;;4.43;;
6306;SDS011;3186;54.062;9.962;2023-05-28T08:04:28;11.37;;;4.77;;
6306;SDS011;3186;54.062;9.962;2023-05-28T08:06:55;10.03;;;5.03;;
6306;SDS011;3186;54.062;9.962;2023-05-28T08:09:22;10.63;;;5.10;;
6306;SDS011;3186;54.062;9.962;2023-05-28T08:11:51;7.63;;;4.90;;
6306;SDS011;3186;54.062;9.962;2023-05-28T08:14:19;12.17;;;5.07;;
6306;SDS011;3186;54.062;9.962;2023-05-28T08:16:47;15.13;;;4.23;;
6306;SDS011;3186;54.062;9.962;2023-05-28T08:19:26;7.53;;;4.33;;
6306;SDS011;3186;54.062;9.962;2023-05-28T08:21:56;10.43;;;5.67;;
6306;SDS011;3186;54.062;9.962;2023-05-28T08:24:22;8.70;;;4.70;;
6306;SDS011;3186;54.062;9.962;2023-05-28T08:26:49;10.93;;;4.83;;
6306;SDS011;3186;54.062;9.962;2023-05-28T08:29:16;12.17;;;4.97;;
6306;SDS011;3186;54.062;9.962;2023-05-28T08:31:48;9.87;;;4.20;;
6306;SDS011;3186;54.062;9.962;2023-05-28T08:34:21;9.23;;;5.40;;
6306;SDS011;3186;54.062;9.962;2023-05-28T08:36:47;8.00;;;4.37;;
6306;SDS011;3186;54.062;9.962;2023-05-28T08:39:20;7.30;;;4.57;;
6306;SDS011;3186;54.062;9.962;2023-05-28T08:41:46;10.27;;;5.10;;
6306;SDS011;3186;54.062;9.962;2023-05-28T08:44:12;12.40;;;4.90;;
6306;SDS011;3186;54.062;9.962;2023-05-28T08:46:38;9.50;;;4.97;;
6306;SDS011;3186;54.062;9.962;2023-05-28T08:49:30;9.67;;;4.40;;
6306;SDS011;3186;54.062;9.962;2023-05-28T08:52:01;8.03;;;4.70;;
6306;SDS011;3186;54.062;9.962;2023-05-28T08:54:31;9.17;;;4.77;;
6306;SDS011;3186;54.062;9.962;2023-05-28T08:56:58;11.73;;;4.70;;
6306;SDS011;3186;54.062;9.962;2023-05-28T08:59:26;7.20;;;4.57;;
6306;SDS011;3186;54.062;9.962;2023-05-28T09:01:53;11.50;;;4.67;;
6306;SDS011;3186;54.062;9.962;2023-05-28T09:04:22;6.27;;;4.07;;
6306;SDS011;3186;54.062;9.962;2023-05-28T09:06:48;9.07;;;4.77;;
6306;SDS011;3186;54.062;9.962;2023-05-28T09:09:36;7.83;;;4.73;;
6306;SDS011;3186;54.062;9.962;2023-05-28T09:12:03;10.33;;;5.17;;
6306;SDS011;3186;54.062;9.962;2023-05-28T09:14:37;10.70;;;4.80;;
6306;SDS011;3186;54.062;9.962;2023-05-28T09:17:04;5.70;;;4.00;;
6306;SDS011;3186;54.062;9.962;2023-05-28T09:19:31;10.90;;;4.63;;
6306;SDS011;3186;54.062;9.962;2023-05-28T09:21:58;9.03;;;4.70;;
6306;SDS011;3186;54.062;9.962;2023-05-28T09:24:48;9.43;;;4.87;;
6306;SDS011;3186;54.062;9.962;2023-05-28T09:27:42;9.30;;;4.53;;
6306;SDS011;3186;54.062;9.962;2023-05-28T09:30:09;10.73;;;4.93;;
6306;SDS011;3186;54.062;9.962;2023-05-28T09:32:37;9.27;;;5.53;;
6306;SDS011;3186;54.062;9.962;2023-05-28T09:35:06;12.47;;;5.17;;
6306;SDS011;3186;54.062;9.962;2023-05-28T09:37:33;9.63;;;4.20;;
6306;SDS011;3186;54.062;9.962;2023-05-28T09:40:03;7.70;;;4.47;;
6306;SDS011;3186;54.062;9.962;2023-05-28T09:42:36;8.33;;;5.20;;
6306;SDS011;3186;54.062;9.962;2023-05-28T09:45:09;7.43;;;4.93;;
6306;SDS011;3186;54.062;9.962;2023-05-28T09:47:42;10.60;;;4.90;;
6306;SDS011;3186;54.062;9.962;2023-05-28T09:50:09;8.27;;;4.33;;
6306;SDS011;3186;54.062;9.962;2023-05-28T09:52:36;7.17;;;4.60;;
6306;SDS011;3186;54.062;9.962;2023-05-28T09:55:04;5.97;;;4.47;;
6306;SDS011;3186;54.062;9.962;2023-05-28T09:57:32;9.17;;;4.70;;
6306;SDS011;3186;54.062;9.962;2023-05-28T10:00:01;6.10;;;4.47;;
6306;SDS011;3186;54.062;9.962;2023-05-28T10:05:10;8.53;;;4.73;;
6306;SDS011;3186;54.062;9.962;2023-05-28T10:07:38;9.37;;;4.80;;
6306;SDS011;3186;54.062;9.962;2023-05-28T10:10:10;8.13;;;4.37;;
6306;SDS011;3186;54.062;9.962;2023-05-28T10:12:37;9.07;;;4.93;;
6306;SDS011;3186;54.062;9.962;2023-05-28T10:15:05;6.53;;;4.60;;
6306;SDS011;3186;54.062;9.962;2023-05-28T10:17:32;5.70;;;3.63;;
6306;SDS011;3186;54.062;9.962;2023-05-28T10:19:58;6.53;;;4.20;;
6306;SDS011;3186;54.062;9.962;2023-05-28T10:22:25;5.77;;;4.53;;
6306;SDS011;3186;54.062;9.962;2023-05-28T10:24:52;5.37;;;4.10;;
6306;SDS011;3186;54.062;9.962;2023-05-28T10:27:19;5.37;;;3.97;;
6306;SDS011;3186;54.062;9.962;2023-05-28T10:29:45;5.13;;;4.00;;
6306;SDS011;3186;54.062;9.962;2023-05-28T10:32:15;3.90;;;3.60;;
6306;SDS011;3186;54.062;9.962;2023-05-28T10:34:42;4.70;;;3.67;;
6306;SDS011;3186;54.062;9.962;2023-05-28T10:37:09;4.30;;;3.57;;
6306;SDS011;3186;54.062;9.962;2023-05-28T10:39:43;7.40;;;3.87;;
6306;SDS011;3186;54.062;9.962;2023-05-28T10:42:13;4.97;;;3.67;;
6306;SDS011;3186;54.062;9.962;2023-05-28T10:47:31;5.27;;;3.30;;
6306;SDS011;3186;54.062;9.962;2023-05-28T10:52:34;3.80;;;3.00;;
6306;SDS011;3186;54.062;9.962;2023-05-28T10:55:04;3.83;;;3.43;;
6306;SDS011;3186;54.062;9.962;2023-05-28T11:00:23;4.70;;;3.23;;
6306;SDS011;3186;54.062;9.962;2023-05-28T11:02:54;4.30;;;3.20;;
6306;SDS011;3186;54.062;9.962;2023-05-28T11:05:23;9.87;;;3.60;;
6306;SDS011;3186;54.062;9.962;2023-05-28T11:07:55;4.10;;;3.10;;
6306;SDS011;3186;54.062;9.962;2023-05-28T11:10:21;4.50;;;2.87;;
6306;SDS011;3186;54.062;9.962;2023-05-28T11:12:47;3.83;;;3.23;;
6306;SDS011;3186;54.062;9.962;2023-05-28T11:15:15;3.87;;;3.27;;
6306;SDS011;3186;54.062;9.962;2023-05-28T11:17:41;5.90;;;3.27;;
6306;SDS011;3186;54.062;9.962;2023-05-28T11:22:45;7.33;;;3.60;;
6306;SDS011;3186;54.062;9.962;2023-05-28T11:25:11;4.53;;;3.60;;
6306;SDS011;3186;54.062;9.962;2023-05-28T11:27:38;4.63;;;3.23;;
6306;SDS011;3186;54.062;9.962;2023-05-28T11:30:12;7.50;;;3.57;;
6306;SDS011;3186;54.062;9.962;2023-05-28T11:32:39;4.87;;;3.60;;
6306;SDS011;3186;54.062;9.962;2023-05-28T11:35:06;6.87;;;3.27;;
6306;SDS011;3186;54.062;9.962;2023-05-28T11:37:35;4.87;;;3.27;;
6306;SDS011;3186;54.062;9.962;2023-05-28T11:40:02;7.00;;;3.47;;
6306;SDS011;3186;54.062;9.962;2023-05-28T11:42:31;8.23;;;4.07;;
6306;SDS011;3186;54.062;9.962;2023-05-28T11:44:58;4.20;;;3.30;;
6306;SDS011;3186;54.062;9.962;2023-05-28T11:47:24;5.07;;;3.83;;
6306;SDS011;3186;54.062;9.962;2023-05-28T11:49:51;8.40;;;4.20;;
6306;SDS011;3186;54.062;9.962;2023-05-28T11:52:18;4.80;;;3.60;;
6306;SDS011;3186;54.062;9.962;2023-05-28T11:54:46;6.50;;;3.73;;
6306;SDS011;3186;54.062;9.962;2023-05-28T11:57:24;5.53;;;3.57;;
6306;SDS011;3186;54.062;9.962;2023-05-28T12:00:11;7.30;;;3.87;;
6306;SDS011;3186;54.062;9.962;2023-05-28T12:02:44;5.23;;;3.83;;
6306;SDS011;3186;54.062;9.962;2023-05-28T12:05:10;6.20;;;3.60;;
6306;SDS011;3186;54.062;9.962;2023-05-28T12:07:37;6.87;;;3.87;;
6306;SDS011;3186;54.062;9.962;2023-05-28T12:10:09;3.63;;;3.20;;
6306;SDS011;3186;54.062;9.962;2023-05-28T12:12:43;7.13;;;3.80;;
6306;SDS011;3186;54.062;9.962;2023-05-28T12:15:10;7.90;;;3.60;;
6306;SDS011;3186;54.062;9.962;2023-05-28T12:17:37;4.67;;;3.20;;
6306;SDS011;3186;54.062;9.962;2023-05-28T12:22:38;4.37;;;3.07;;
6306;SDS011;3186;54.062;9.962;2023-05-28T12:25:05;6.73;;;3.80;;
6306;SDS011;3186;54.062;9.962;2023-05-28T12:27:32;6.40;;;3.43;;
6306;SDS011;3186;54.062;9.962;2023-05-28T12:29:58;6.77;;;3.37;;
6306;SDS011;3186;54.062;9.962;2023-05-28T12:32:23;5.30;;;3.40;;
6306;SDS011;3186;54.062;9.962;2023-05-28T12:34:49;6.97;;;3.37;;
6306;SDS011;3186;54.062;9.962;2023-05-28T12:37:17;5.50;;;3.20;;
6306;SDS011;3186;54.062;9.962;2023-05-28T12:39:43;6.17;;;3.43;;
6306;SDS011;3186;54.062;9.962;2023-05-28T12:42:09;8.17;;;3.73;;
6306;SDS011;3186;54.062;9.962;2023-05-28T12:44:35;5.07;;;3.47;;
6306;SDS011;3186;54.062;9.962;2023-05-28T12:47:01;5.97;;;3.17;;
6306;SDS011;3186;54.062;9.962;2023-05-28T12:49:27;6.53;;;3.23;;
6306;SDS011;3186;54.062;9.962;2023-05-28T12:51:53;5.10;;;3.27;;
6306;SDS011;3186;54.062;9.962;2023-05-28T12:54:18;4.73;;;2.60;;
6306;SDS011;3186;54.062;9.962;2023-05-28T12:56:44;4.63;;;3.07;;
6306;SDS011;3186;54.062;9.962;2023-05-28T12:59:19;7.80;;;2.80;;
6306;SDS011;3186;54.062;9.962;2023-05-28T13:01:49;5.13;;;3.20;;
6306;SDS011;3186;54.062;9.962;2023-05-28T13:04:16;3.53;;;2.60;;
6306;SDS011;3186;54.062;9.962;2023-05-28T13:06:42;5.30;;;2.77;;
6306;SDS011;3186;54.062;9.962;2023-05-28T13:09:09;4.93;;;2.50;;
6306;SDS011;3186;54.062;9.962;2023-05-28T13:11:38;7.97;;;3.20;;
6306;SDS011;3186;54.062;9.962;2023-05-28T13:14:04;3.03;;;2.73;;
6306;SDS011;3186;54.062;9.962;2023-05-28T13:16:31;6.93;;;3.37;;
6306;SDS011;3186;54.062;9.962;2023-05-28T13:18:57;7.70;;;2.87;;
6306;SDS011;3186;54.062;9.962;2023-05-28T13:21:22;6.57;;;3.20;;
6306;SDS011;3186;54.062;9.962;2023-05-28T13:23:48;7.23;;;3.47;;
6306;SDS011;3186;54.062;9.962;2023-05-28T13:26:14;3.30;;;2.67;;
6306;SDS011;3186;54.062;9.962;2023-05-28T13:28:40;4.20;;;3.10;;
6306;SDS011;3186;54.062;9.962;2023-05-28T13:31:06;5.27;;;2.93;;
6306;SDS011;3186;54.062;9.962;2023-05-28T13:33:32;4.13;;;2.90;;
6306;SDS011;3186;54.062;9.962;2023-05-28T13:35:58;3.60;;;2.60;;
6306;SDS011;3186;54.062;9.962;2023-05-28T13:38:24;5.13;;;2.80;;
6306;SDS011;3186;54.062;9.962;2023-05-28T13:40:49;4.97;;;3.40;;
6306;SDS011;3186;54.062;9.962;2023-05-28T13:43:17;6.13;;;2.90;;
6306;SDS011;3186;54.062;9.962;2023-05-28T13:45:43;4.80;;;2.53;;
6306;SDS011;3186;54.062;9.962;2023-05-28T13:48:09;3.33;;;2.67;;
6306;SDS011;3186;54.062;9.962;2023-05-28T13:50:35;5.37;;;2.17;;
6306;SDS011;3186;54.062;9.962;2023-05-28T13:53:01;4.10;;;2.77;;
6306;SDS011;3186;54.062;9.962;2023-05-28T13:55:27;5.27;;;3.00;;
6306;SDS011;3186;54.062;9.962;2023-05-28T13:57:53;4.40;;;2.43;;
6306;SDS011;3186;54.062;9.962;2023-05-28T14:00:19;4.30;;;2.60;;
6306;SDS011;3186;54.062;9.962;2023-05-28T14:02:46;4.50;;;2.80;;
6306;SDS011;3186;54.062;9.962;2023-05-28T14:05:13;4.43;;;2.97;;
6306;SDS011;3186;54.062;9.962;2023-05-28T14:07:39;3.23;;;2.40;;
6306;SDS011;3186;54.062;9.962;2023-05-28T14:10:05;4.93;;;2.83;;
6306;SDS011;3186;54.062;9.962;2023-05-28T14:12:32;6.20;;;2.93;;
6306;SDS011;3186;54.062;9.962;2023-05-28T14:14:57;3.47;;;2.77;;
6306;SDS011;3186;54.062;9.962;2023-05-28T14:17:23;4.00;;;2.87;;
6306;SDS011;3186;54.062;9.962;2023-05-28T14:19:49;3.80;;;2.90;;
6306;SDS011;3186;54.062;9.962;2023-05-28T14:22:16;2.97;;;2.20;;
6306;SDS011;3186;54.062;9.962;2023-05-28T14:24:42;2.80;;;2.33;;
6306;SDS011;3186;54.062;9.962;2023-05-28T14:27:07;4.23;;;2.37;;
6306;SDS011;3186;54.062;9.962;2023-05-28T14:29:35;4.23;;;2.60;;
6306;SDS011;3186;54.062;9.962;2023-05-28T14:32:00;5.70;;;2.53;;
6306;SDS011;3186;54.062;9.962;2023-05-28T14:34:27;4.70;;;2.57;;
6306;SDS011;3186;54.062;9.962;2023-05-28T14:36:53;2.67;;;2.23;;
6306;SDS011;3186;54.062;9.962;2023-05-28T14:39:19;5.30;;;2.60;;
6306;SDS011;3186;54.062;9.962;2023-05-28T14:41:45;5.10;;;2.90;;
6306;SDS011;3186;54.062;9.962;2023-05-28T14:44:11;4.47;;;2.60;;
6306;SDS011;3186;54.062;9.962;2023-05-28T14:46:37;4.57;;;3.13;;
6306;SDS011;3186;54.062;9.962;2023-05-28T14:49:03;3.67;;;2.50;;
6306;SDS011;3186;54.062;9.962;2023-05-28T14:51:28;3.77;;;2.70;;
6306;SDS011;3186;54.062;9.962;2023-05-28T14:53:55;6.23;;;3.13;;
6306;SDS011;3186;54.062;9.962;2023-05-28T14:56:21;4.57;;;2.97;;
6306;SDS011;3186;54.062;9.962;2023-05-28T14:58:47;4.03;;;2.60;;
6306;SDS011;3186;54.062;9.962;2023-05-28T15:01:12;5.00;;;2.70;;
6306;SDS011;3186;54.062;9.962;2023-05-28T15:03:38;5.50;;;2.60;;
6306;SDS011;3186;54.062;9.962;2023-05-28T15:06:04;3.53;;;2.83;;
6306;SDS011;3186;54.062;9.962;2023-05-28T15:08:30;3.67;;;2.57;;
6306;SDS011;3186;54.062;9.962;2023-05-28T15:10:56;3.63;;;2.60;;
6306;SDS011;3186;54.062;9.962;2023-05-28T15:13:22;3.37;;;2.60;;
6306;SDS011;3186;54.062;9.962;2023-05-28T15:15:48;3.67;;;2.40;;
6306;SDS011;3186;54.062;9.962;2023-05-28T15:18:14;3.93;;;2.50;;
6306;SDS011;3186;54.062;9.962;2023-05-28T15:20:40;5.20;;;2.40;;
6306;SDS011;3186;54.062;9.962;2023-05-28T15:23:06;3.57;;;2.20;;
6306;SDS011;3186;54.062;9.962;2023-05-28T15:25:32;3.60;;;2.20;;
6306;SDS011;3186;54.062;9.962;2023-05-28T15:27:58;3.07;;;2.50;;
6306;SDS011;3186;54.062;9.962;2023-05-28T15:30:24;3.90;;;2.70;;
6306;SDS011;3186;54.062;9.962;2023-05-28T15:32:50;3.90;;;2.60;;
6306;SDS011;3186;54.062;9.962;2023-05-28T15:35:22;3.30;;;2.23;;